createdAt,value
2023-03-29T00:00:59.862Z,568.00
2023-03-29T00:01:59.646Z,569.00
2023-03-29T00:02:59.654Z,570.00
2023-03-29T00:04:02.307Z,571.00
2023-03-29T00:04:59.607Z,572.00
2023-03-29T00:05:59.598Z,572.00
2023-03-29T00:06:59.596Z,573.00
2023-03-29T00:07:59.577Z,575.00
2023-03-29T00:08:59.565Z,573.00
2023-03-29T00:09:59.538Z,574.00
2023-03-29T00:10:59.723Z,579.00
2023-03-29T00:11:59.539Z,580.00
2023-03-29T00:12:59.519Z,580.00
2023-03-29T00:13:59.551Z,579.00
2023-03-29T00:14:59.516Z,578.00
2023-03-29T00:15:59.526Z,577.00
2023-03-29T00:16:59.575Z,579.00
2023-03-29T00:17:59.552Z,576.00
2023-03-29T00:18:59.495Z,576.00
2023-03-29T00:19:59.485Z,576.00
2023-03-29T00:20:59.741Z,575.00
2023-03-29T00:21:59.454Z,578.00
2023-03-29T00:22:59.456Z,578.00
2023-03-29T00:23:59.458Z,580.00
2023-03-29T00:24:59.465Z,578.00
2023-03-29T00:25:59.480Z,577.00
2023-03-29T00:26:59.490Z,578.00
2023-03-29T00:27:59.461Z,577.00
2023-03-29T00:28:59.423Z,576.00
2023-03-29T00:29:59.418Z,578.00
2023-03-29T00:30:59.591Z,576.00
2023-03-29T00:31:59.376Z,576.00
2023-03-29T00:32:59.387Z,575.00
2023-03-29T00:33:59.383Z,576.00
2023-03-29T00:34:59.376Z,575.00
2023-03-29T00:35:59.410Z,576.00
2023-03-29T00:36:59.371Z,575.00
2023-03-29T00:37:59.365Z,577.00
2023-03-29T00:38:59.356Z,579.00
2023-03-29T00:39:59.338Z,579.00
2023-03-29T00:40:59.530Z,579.00
2023-03-29T00:41:59.336Z,581.00
2023-03-29T00:42:59.355Z,578.00
2023-03-29T00:43:59.323Z,579.00
2023-03-29T00:44:59.297Z,578.00
2023-03-29T00:45:59.349Z,577.00
2023-03-29T00:46:59.317Z,576.00
2023-03-29T00:47:59.337Z,575.00
2023-03-29T00:48:59.279Z,575.00
2023-03-29T00:49:59.282Z,576.00
2023-03-29T00:50:59.408Z,576.00
2023-03-29T00:51:59.249Z,578.00
2023-03-29T00:52:59.279Z,578.00
2023-03-29T00:53:59.260Z,579.00
2023-03-29T00:54:59.249Z,578.00
2023-03-29T00:55:59.234Z,575.00
2023-03-29T00:56:59.268Z,573.00
2023-03-29T00:57:59.225Z,572.00
2023-03-29T00:58:59.230Z,572.00
2023-03-29T00:59:59.242Z,571.00
2023-03-29T01:00:59.337Z,569.00
2023-03-29T01:01:59.245Z,567.00
2023-03-29T01:02:59.263Z,567.00
2023-03-29T01:03:59.204Z,570.00
2023-03-29T01:04:59.182Z,573.00
2023-03-29T01:05:59.182Z,574.00
2023-03-29T01:06:59.221Z,574.00
2023-03-29T01:07:59.178Z,576.00
2023-03-29T01:08:59.158Z,576.00
2023-03-29T01:09:59.168Z,575.00
2023-03-29T01:10:59.224Z,574.00
2023-03-29T01:11:59.138Z,573.00
2023-03-29T01:12:59.120Z,569.00
2023-03-29T01:13:59.129Z,568.00
2023-03-29T01:14:59.120Z,569.00
2023-03-29T01:15:59.136Z,567.00
2023-03-29T01:16:59.105Z,568.00
2023-03-29T01:17:59.139Z,570.00
2023-03-29T01:18:59.123Z,570.00
2023-03-29T01:19:59.077Z,570.00
2023-03-29T01:20:59.118Z,570.00
2023-03-29T01:21:59.092Z,572.00
2023-03-29T01:24:18.297Z,575.00
2023-03-29T01:25:18.318Z,578.00
2023-03-29T01:26:18.305Z,576.00
2023-03-29T01:27:18.249Z,575.00
2023-03-29T01:28:18.262Z,572.00
2023-03-29T01:29:18.265Z,572.00
2023-03-29T01:30:18.280Z,572.00
2023-03-29T01:31:18.276Z,572.00
2023-03-29T01:32:18.239Z,569.00
2023-03-29T01:33:18.212Z,570.00
2023-03-29T01:34:18.206Z,570.00
2023-03-29T01:35:18.238Z,570.00
2023-03-29T01:36:18.282Z,572.00
2023-03-29T01:37:18.192Z,574.00
2023-03-29T01:38:18.202Z,574.00
2023-03-29T01:39:18.219Z,577.00
2023-03-29T01:40:18.182Z,576.00
2023-03-29T01:41:18.181Z,576.00
2023-03-29T01:42:18.190Z,574.00
2023-03-29T01:43:18.162Z,573.00
2023-03-29T01:44:18.160Z,574.00
2023-03-29T01:45:18.146Z,574.00
2023-03-29T01:46:18.264Z,571.00
2023-03-29T01:47:18.138Z,573.00
2023-03-29T01:48:18.135Z,574.00
2023-03-29T01:49:18.108Z,576.00
2023-03-29T01:50:18.124Z,577.00
2023-03-29T01:51:18.116Z,577.00
2023-03-29T01:52:18.104Z,576.00
2023-03-29T01:53:18.156Z,575.00
2023-03-29T01:54:18.139Z,575.00
2023-03-29T01:55:18.101Z,576.00
2023-03-29T01:56:18.086Z,579.00
2023-03-29T01:57:18.092Z,578.00
2023-03-29T01:58:18.070Z,578.00
2023-03-29T01:59:18.053Z,576.00
2023-03-29T02:00:18.116Z,574.00
2023-03-29T02:01:18.072Z,571.00
2023-03-29T02:02:18.061Z,570.00
2023-03-29T02:03:18.125Z,570.00
2023-03-29T02:04:18.022Z,570.00
2023-03-29T02:05:18.015Z,569.00
2023-03-29T02:06:18.042Z,568.00
2023-03-29T02:07:18.023Z,569.00
2023-03-29T02:08:18.000Z,569.00
2023-03-29T02:09:17.997Z,567.00
2023-03-29T02:10:18.008Z,567.00
2023-03-29T02:11:17.968Z,567.00
2023-03-29T02:12:17.977Z,566.00
2023-03-29T02:13:17.980Z,567.00
2023-03-29T02:14:17.983Z,569.00
2023-03-29T02:15:17.971Z,571.00
2023-03-29T02:16:17.947Z,570.00
2023-03-29T02:17:17.953Z,572.00
2023-03-29T02:18:17.936Z,573.00
2023-03-29T02:19:17.940Z,574.00
2023-03-29T02:20:17.924Z,572.00
2023-03-29T02:21:17.924Z,572.00
2023-03-29T02:22:17.927Z,572.00
2023-03-29T02:23:17.891Z,572.00
2023-03-29T02:24:17.896Z,570.00
2023-03-29T02:25:17.867Z,569.00
2023-03-29T02:26:17.877Z,569.00
2023-03-29T02:27:17.897Z,570.00
2023-03-29T02:28:17.860Z,571.00
2023-03-29T02:29:17.870Z,574.00
2023-03-29T02:30:17.877Z,578.00
2023-03-29T02:31:17.885Z,580.00
2023-03-29T02:32:17.832Z,578.00
2023-03-29T02:33:17.809Z,578.00
2023-03-29T02:34:17.815Z,574.00
2023-03-29T02:35:17.835Z,577.00
2023-03-29T02:36:17.917Z,578.00
2023-03-29T02:37:17.814Z,581.00
2023-03-29T02:38:17.814Z,580.00
2023-03-29T02:39:17.815Z,579.00
2023-03-29T02:40:17.810Z,578.00
2023-03-29T02:41:17.811Z,578.00
2023-03-29T02:42:17.766Z,579.00
2023-03-29T02:43:17.819Z,578.00
2023-03-29T02:44:17.751Z,574.00
2023-03-29T02:45:17.757Z,573.00
2023-03-29T02:46:17.760Z,572.00
2023-03-29T02:47:17.742Z,571.00
2023-03-29T02:48:17.787Z,570.00
2023-03-29T02:49:17.761Z,572.00
2023-03-29T02:50:17.727Z,571.00
2023-03-29T02:51:19.891Z,570.00
2023-03-29T02:52:17.827Z,569.00
2023-03-29T02:53:17.877Z,570.00
2023-03-29T02:54:17.893Z,572.00
2023-03-29T02:55:17.888Z,572.00
2023-03-29T02:56:17.879Z,575.00
2023-03-29T02:57:18.001Z,574.00
2023-03-29T02:58:17.920Z,575.00
2023-03-29T02:59:17.973Z,574.00
2023-03-29T03:00:17.954Z,575.00
2023-03-29T03:01:17.986Z,574.00
2023-03-29T03:02:18.030Z,577.00
2023-03-29T03:03:18.075Z,577.00
2023-03-29T03:04:18.005Z,577.00
2023-03-29T03:05:17.985Z,573.00
2023-03-29T03:06:18.018Z,575.00
2023-03-29T03:07:18.035Z,574.00
2023-03-29T03:08:18.031Z,573.00
2023-03-29T03:09:17.998Z,573.00
2023-03-29T03:10:18.012Z,573.00
2023-03-29T03:11:18.028Z,571.00
2023-03-29T03:12:18.037Z,574.00
2023-03-29T03:13:18.062Z,573.00
2023-03-29T03:14:18.100Z,570.00
2023-03-29T03:15:18.147Z,573.00
2023-03-29T03:16:18.281Z,572.00
2023-03-29T03:17:18.256Z,571.00
2023-03-29T03:18:18.348Z,573.00
2023-03-29T03:19:18.392Z,573.00
2023-03-29T03:20:18.489Z,571.00
2023-03-29T03:21:18.517Z,574.00
2023-03-29T03:22:18.537Z,573.00
2023-03-29T03:23:18.605Z,571.00
2023-03-29T03:24:18.720Z,572.00
2023-03-29T03:25:18.732Z,571.00
2023-03-29T03:26:18.787Z,570.00
2023-03-29T03:27:18.828Z,570.00
2023-03-29T03:28:18.876Z,571.00
2023-03-29T03:29:18.904Z,574.00
2023-03-29T03:30:18.953Z,577.00
2023-03-29T03:31:19.006Z,575.00
2023-03-29T03:32:19.020Z,577.00
2023-03-29T03:33:19.072Z,578.00
2023-03-29T03:34:19.085Z,576.00
2023-03-29T03:35:19.162Z,578.00
2023-03-29T03:36:19.177Z,579.00
2023-03-29T03:37:19.219Z,580.00
2023-03-29T03:38:19.209Z,581.00
2023-03-29T03:39:19.281Z,579.00
2023-03-29T03:40:19.296Z,578.00
2023-03-29T03:41:19.287Z,577.00
2023-03-29T03:42:19.335Z,579.00
2023-03-29T03:43:19.345Z,579.00
2023-03-29T03:44:19.372Z,578.00
2023-03-29T03:45:19.400Z,577.00
2023-03-29T03:46:19.440Z,578.00
2023-03-29T03:47:19.441Z,577.00
2023-03-29T03:48:19.467Z,574.00
2023-03-29T03:49:19.558Z,574.00
2023-03-29T03:50:19.543Z,576.00
2023-03-29T03:51:19.555Z,577.00
2023-03-29T03:52:19.540Z,577.00
2023-03-29T03:53:19.615Z,578.00
2023-03-29T03:54:19.623Z,582.00
2023-03-29T03:55:19.639Z,581.00
2023-03-29T03:56:19.641Z,582.00
2023-03-29T03:57:19.713Z,579.00
2023-03-29T03:58:19.688Z,575.00
2023-03-29T03:59:19.683Z,573.00
2023-03-29T04:00:19.786Z,571.00
2023-03-29T04:01:19.732Z,574.00
2023-03-29T04:02:19.814Z,574.00
2023-03-29T04:03:19.914Z,571.00
2023-03-29T04:04:19.874Z,570.00
2023-03-29T04:05:19.844Z,570.00
2023-03-29T04:06:19.832Z,571.00
2023-03-29T04:07:19.862Z,572.00
2023-03-29T04:08:19.897Z,573.00
2023-03-29T04:09:19.971Z,575.00
2023-03-29T04:10:19.914Z,578.00
2023-03-29T04:11:19.920Z,577.00
2023-03-29T04:12:19.925Z,575.00
2023-03-29T04:13:19.955Z,577.00
2023-03-29T04:14:19.980Z,575.00
2023-03-29T04:15:19.984Z,571.00
2023-03-29T04:16:20.024Z,572.00
2023-03-29T04:17:20.084Z,573.00
2023-03-29T04:18:20.146Z,575.00
2023-03-29T04:19:20.019Z,574.00
2023-03-29T04:20:20.001Z,574.00
2023-03-29T04:21:21.278Z,574.00
2023-03-29T04:22:20.023Z,575.00
2023-03-29T04:23:20.003Z,576.00
2023-03-29T04:24:20.021Z,577.00
2023-03-29T04:25:20.035Z,574.00
2023-03-29T04:26:20.049Z,576.00
2023-03-29T04:27:20.033Z,577.00
2023-03-29T04:28:20.053Z,578.00
2023-03-29T04:29:20.037Z,577.00
2023-03-29T04:30:20.018Z,575.00
2023-03-29T04:31:20.081Z,578.00
2023-03-29T04:32:20.056Z,575.00
2023-03-29T04:33:20.067Z,575.00
2023-03-29T04:34:20.080Z,577.00
2023-03-29T04:35:20.054Z,580.00
2023-03-29T04:36:20.102Z,578.00
2023-03-29T04:37:20.065Z,576.00
2023-03-29T04:38:20.164Z,576.00
2023-03-29T04:39:20.088Z,578.00
2023-03-29T04:40:20.112Z,577.00
2023-03-29T04:41:20.125Z,577.00
2023-03-29T04:42:20.142Z,576.00
2023-03-29T04:43:20.123Z,576.00
2023-03-29T04:44:20.130Z,574.00
2023-03-29T04:45:20.162Z,575.00
2023-03-29T04:46:20.227Z,571.00
2023-03-29T04:47:20.159Z,572.00
2023-03-29T04:48:20.149Z,573.00
2023-03-29T04:49:20.130Z,575.00
2023-03-29T04:50:20.163Z,574.00
2023-03-29T04:51:20.132Z,574.00
2023-03-29T04:52:21.363Z,575.00
2023-03-29T04:53:20.153Z,575.00
2023-03-29T04:54:20.137Z,574.00
2023-03-29T04:55:20.147Z,575.00
2023-03-29T04:56:20.147Z,573.00
2023-03-29T04:57:20.149Z,572.00
2023-03-29T04:58:22.482Z,571.00
2023-03-29T04:59:20.111Z,572.00
2023-03-29T05:00:20.207Z,573.00
2023-03-29T05:01:27.170Z,575.00
2023-03-29T05:02:20.131Z,574.00
2023-03-29T05:03:20.105Z,574.00
2023-03-29T05:04:20.152Z,574.00
2023-03-29T05:05:20.080Z,572.00
2023-03-29T05:06:20.081Z,571.00
2023-03-29T05:07:20.057Z,572.00
2023-03-29T05:08:20.054Z,572.00
2023-03-29T05:09:20.053Z,572.00
2023-03-29T05:10:20.031Z,574.00
2023-03-29T05:11:20.136Z,574.00
2023-03-29T05:12:20.013Z,575.00
2023-03-29T05:13:20.031Z,574.00
2023-03-29T05:14:20.035Z,572.00
2023-03-29T05:15:20.008Z,573.00
2023-03-29T05:16:20.097Z,574.00
2023-03-29T05:17:19.990Z,573.00
2023-03-29T05:18:19.990Z,573.00
2023-03-29T05:19:19.973Z,570.00
2023-03-29T05:20:19.970Z,571.00
2023-03-29T05:21:19.949Z,574.00
2023-03-29T05:22:19.996Z,577.00
2023-03-29T05:23:19.956Z,577.00
2023-03-29T05:24:20.001Z,578.00
2023-03-29T05:25:19.959Z,574.00
2023-03-29T05:26:19.944Z,571.00
2023-03-29T05:27:19.933Z,571.00
2023-03-29T05:28:19.933Z,570.00
2023-03-29T05:29:19.897Z,569.00
2023-03-29T05:30:19.914Z,572.00
2023-03-29T05:31:20.002Z,571.00
2023-03-29T05:32:19.926Z,574.00
2023-03-29T05:33:19.896Z,585.00
2023-03-29T05:34:19.910Z,603.00
2023-03-29T05:35:19.894Z,619.00
2023-03-29T05:36:19.856Z,648.00
2023-03-29T05:37:19.873Z,695.00
2023-03-29T05:38:19.899Z,764.00
2023-03-29T05:39:19.858Z,835.00
2023-03-29T05:40:19.845Z,862.00
2023-03-29T05:41:19.820Z,919.00
2023-03-29T05:42:19.835Z,967.00
2023-03-29T05:43:19.814Z,857.00
2023-03-29T05:44:20.132Z,1012.00
2023-03-29T05:45:19.826Z,981.00
2023-03-29T05:46:26.852Z,1214.00
2023-03-29T05:47:19.845Z,1077.00
2023-03-29T05:48:19.787Z,1048.00
2023-03-29T05:49:20.182Z,1085.00
2023-03-29T05:50:19.794Z,1094.00
2023-03-29T05:51:19.807Z,1130.00
2023-03-29T05:52:19.825Z,1182.00
2023-03-29T05:53:19.782Z,1219.00
2023-03-29T05:54:19.777Z,1211.00
2023-03-29T05:55:19.750Z,1205.00
2023-03-29T05:56:19.804Z,1202.00
2023-03-29T05:57:19.820Z,1326.00
2023-03-29T05:58:19.737Z,1299.00
2023-03-29T05:59:19.769Z,1316.00
2023-03-29T06:00:19.715Z,1390.00
2023-03-29T06:01:19.735Z,1371.00
2023-03-29T06:02:19.773Z,1399.00
2023-03-29T06:03:21.094Z,1412.00
2023-03-29T06:04:19.810Z,1424.00
2023-03-29T06:05:19.700Z,1419.00
2023-03-29T06:06:19.699Z,1422.00
2023-03-29T06:07:19.738Z,1437.00
2023-03-29T06:08:19.671Z,1456.00
2023-03-29T06:09:19.704Z,1478.00
2023-03-29T06:10:19.648Z,1508.00
2023-03-29T06:11:19.719Z,1515.00
2023-03-29T06:12:19.769Z,1505.00
2023-03-29T06:13:19.844Z,1767.00
2023-03-29T06:14:19.871Z,1669.00
2023-03-29T06:15:19.943Z,1862.00
2023-03-29T06:16:20.035Z,1955.00
2023-03-29T06:17:20.097Z,1804.00
2023-03-29T06:18:20.111Z,1647.00
2023-03-29T06:19:20.082Z,1697.00
2023-03-29T06:20:20.173Z,1707.00
2023-03-29T06:21:20.167Z,1671.00
2023-03-29T06:22:21.435Z,1678.00
2023-03-29T06:23:20.244Z,1887.00
2023-03-29T06:24:20.297Z,1967.00
2023-03-29T06:25:20.305Z,1727.00
2023-03-29T06:26:20.312Z,1803.00
2023-03-29T06:27:20.349Z,1759.00
2023-03-29T06:28:20.378Z,1784.00
2023-03-29T06:29:20.403Z,1796.00
2023-03-29T06:30:20.408Z,1707.00
2023-03-29T06:31:20.438Z,1811.00
2023-03-29T06:32:20.455Z,1821.00
2023-03-29T06:33:20.492Z,1829.00
2023-03-29T06:34:20.428Z,1751.00
2023-03-29T06:35:20.451Z,1776.00
2023-03-29T06:36:20.490Z,1799.00
2023-03-29T06:37:20.490Z,1801.00
2023-03-29T06:38:20.503Z,1802.00
2023-03-29T06:39:20.538Z,1790.00
2023-03-29T06:40:20.568Z,1652.00
2023-03-29T06:41:20.594Z,1707.00
2023-03-29T06:42:21.880Z,1704.00
2023-03-29T06:43:20.635Z,1658.00
2023-03-29T06:44:20.690Z,1711.00
2023-03-29T06:45:23.822Z,1715.00
2023-03-29T06:46:20.727Z,1717.00
2023-03-29T06:47:20.742Z,1827.00
2023-03-29T06:48:20.663Z,1810.00
2023-03-29T06:49:20.682Z,1956.00
2023-03-29T06:50:20.683Z,1877.00
2023-03-29T06:51:23.223Z,1846.00
2023-03-29T06:52:20.643Z,2019.00
2023-03-29T06:53:20.858Z,1962.00
2023-03-29T06:54:20.674Z,1885.00
2023-03-29T06:55:20.625Z,1900.00
2023-03-29T06:56:20.641Z,1907.00
2023-03-29T06:57:20.634Z,1893.00
2023-03-29T06:58:20.653Z,1878.00
2023-03-29T06:59:20.604Z,1879.00
2023-03-29T07:00:20.616Z,1984.00
2023-03-29T07:01:20.623Z,1839.00
2023-03-29T07:02:20.611Z,1826.00
2023-03-29T07:03:20.624Z,1808.00
2023-03-29T07:04:20.626Z,1611.00
2023-03-29T07:05:20.584Z,1668.00
2023-03-29T07:06:20.651Z,1656.00
2023-03-29T07:07:20.720Z,1645.00
2023-03-29T07:08:20.603Z,1572.00
2023-03-29T07:09:20.535Z,1559.00
2023-03-29T07:10:20.551Z,1562.00
2023-03-29T07:11:20.564Z,1547.00
2023-03-29T07:12:20.549Z,1541.00
2023-03-29T07:13:20.533Z,1534.00
2023-03-29T07:14:20.548Z,1543.00
2023-03-29T07:15:20.515Z,1609.00
2023-03-29T07:16:20.623Z,1656.00
2023-03-29T07:17:20.563Z,1450.00
2023-03-29T07:18:20.505Z,1447.00
2023-03-29T07:19:20.497Z,1456.00
2023-03-29T07:20:20.469Z,1424.00
2023-03-29T07:21:20.591Z,1415.00
2023-03-29T07:22:20.458Z,1421.00
2023-03-29T07:23:20.437Z,1403.00
2023-03-29T07:24:20.445Z,1419.00
2023-03-29T07:25:20.429Z,1405.00
2023-03-29T07:26:28.969Z,1318.00
2023-03-29T07:27:21.437Z,1333.00
2023-03-29T07:28:20.422Z,1335.00
2023-03-29T07:29:20.434Z,1331.00
2023-03-29T07:30:20.384Z,1376.00
2023-03-29T07:31:20.389Z,1429.00
2023-03-29T07:32:20.434Z,1420.00
2023-03-29T07:33:20.410Z,1404.00
2023-03-29T07:34:20.362Z,1293.00
2023-03-29T07:35:20.386Z,1403.00
2023-03-29T07:36:20.402Z,1342.00
2023-03-29T07:37:20.342Z,1352.00
2023-03-29T07:38:20.328Z,1356.00
2023-03-29T07:39:20.332Z,1370.00
2023-03-29T07:40:20.354Z,1360.00
2023-03-29T07:41:20.364Z,1350.00
2023-03-29T07:42:20.348Z,1353.00
2023-03-29T07:43:20.378Z,1315.00
2023-03-29T07:44:20.361Z,1402.00
2023-03-29T07:45:20.697Z,1386.00
2023-03-29T07:46:21.441Z,1475.00
2023-03-29T07:47:20.384Z,1408.00
2023-03-29T07:48:20.417Z,1412.00
2023-03-29T07:49:22.107Z,1398.00
2023-03-29T07:50:20.449Z,1368.00
2023-03-29T07:51:20.517Z,1349.00
2023-03-29T07:52:21.371Z,1346.00
2023-03-29T07:53:20.594Z,1337.00
2023-03-29T07:54:20.696Z,1327.00
2023-03-29T07:55:20.744Z,1312.00
2023-03-29T07:56:20.768Z,1302.00
2023-03-29T07:57:20.835Z,1293.00
2023-03-29T07:58:20.787Z,1284.00
2023-03-29T07:59:20.796Z,1275.00
2023-03-29T08:00:21.663Z,1269.00
2023-03-29T08:01:20.890Z,1262.00
2023-03-29T08:02:20.869Z,1258.00
2023-03-29T08:03:20.977Z,1251.00
2023-03-29T08:04:20.994Z,1245.00
2023-03-29T08:05:26.256Z,1241.00
2023-03-29T08:06:21.845Z,1236.00
2023-03-29T08:07:20.891Z,1219.00
2023-03-29T08:08:20.859Z,1216.00
2023-03-29T08:09:20.847Z,1213.00
2023-03-29T08:10:20.839Z,1210.00
2023-03-29T08:11:20.821Z,1206.00
2023-03-29T08:12:22.054Z,1204.00
2023-03-29T08:13:20.842Z,1201.00
2023-03-29T08:14:20.821Z,1196.00
2023-03-29T08:15:20.816Z,1188.00
2023-03-29T08:16:20.822Z,1186.00
2023-03-29T08:17:20.812Z,1184.00
2023-03-29T08:18:20.779Z,1179.00
2023-03-29T08:19:20.830Z,1174.00
2023-03-29T08:20:21.275Z,1166.00
2023-03-29T08:21:20.790Z,1161.00
2023-03-29T08:22:20.762Z,1156.00
2023-03-29T08:23:20.756Z,1149.00
2023-03-29T08:24:21.136Z,1143.00
2023-03-29T08:25:20.749Z,1139.00
2023-03-29T08:26:20.733Z,1138.00
2023-03-29T08:27:20.731Z,1133.00
2023-03-29T08:28:20.684Z,1128.00
2023-03-29T08:29:20.750Z,1126.00
2023-03-29T08:30:20.843Z,1124.00
2023-03-29T08:31:20.722Z,1120.00
2023-03-29T08:32:20.713Z,1117.00
2023-03-29T08:33:20.687Z,1114.00
2023-03-29T08:34:20.685Z,1110.00
2023-03-29T08:35:20.719Z,1104.00
2023-03-29T08:36:20.695Z,1102.00
2023-03-29T08:37:20.671Z,1335.00
2023-03-29T08:38:20.623Z,1162.00
2023-03-29T08:39:20.642Z,1188.00
2023-03-29T08:40:20.652Z,1041.00
2023-03-29T08:41:20.628Z,1044.00
2023-03-29T08:42:20.635Z,944.00
2023-03-29T08:43:20.630Z,968.00
2023-03-29T08:44:20.597Z,949.00
2023-03-29T08:45:20.606Z,952.00
2023-03-29T08:46:20.613Z,944.00
2023-03-29T08:47:20.609Z,1055.00
2023-03-29T08:48:20.575Z,1000.00
2023-03-29T08:49:20.569Z,992.00
2023-03-29T08:50:20.583Z,903.00
2023-03-29T08:51:20.549Z,916.00
2023-03-29T08:52:20.547Z,919.00
2023-03-29T08:53:20.563Z,919.00
2023-03-29T08:54:20.554Z,927.00
2023-03-29T08:55:20.741Z,936.00
2023-03-29T08:56:20.521Z,943.00
2023-03-29T08:57:20.608Z,930.00
2023-03-29T08:58:20.504Z,910.00
2023-03-29T08:59:20.550Z,883.00
2023-03-29T09:00:20.567Z,866.00
2023-03-29T09:01:20.499Z,843.00
2023-03-29T09:02:20.547Z,831.00
2023-03-29T09:03:20.646Z,820.00
2023-03-29T09:04:20.470Z,813.00
2023-03-29T09:05:20.494Z,804.00
2023-03-29T09:06:20.475Z,791.00
2023-03-29T09:07:20.469Z,780.00
2023-03-29T09:08:20.416Z,768.00
2023-03-29T09:09:20.436Z,759.00
2023-03-29T09:10:20.416Z,754.00
2023-03-29T09:11:20.421Z,748.00
2023-03-29T09:12:20.417Z,744.00
2023-03-29T09:13:20.454Z,739.00
2023-03-29T09:14:20.403Z,735.00
2023-03-29T09:15:20.364Z,729.00
2023-03-29T09:16:20.434Z,718.00
2023-03-29T09:17:20.414Z,708.00
2023-03-29T09:18:20.463Z,704.00
2023-03-29T09:19:20.518Z,698.00
2023-03-29T09:20:20.745Z,690.00
2023-03-29T09:21:20.613Z,681.00
2023-03-29T09:22:20.640Z,675.00
2023-03-29T09:23:20.665Z,672.00
2023-03-29T09:24:20.705Z,667.00
2023-03-29T09:25:21.321Z,662.00
2023-03-29T09:26:20.673Z,657.00
2023-03-29T09:27:20.671Z,654.00
2023-03-29T09:28:20.660Z,652.00
2023-03-29T09:29:20.700Z,649.00
2023-03-29T09:30:20.735Z,645.00
2023-03-29T09:31:20.723Z,639.00
2023-03-29T09:32:20.719Z,637.00
2023-03-29T09:33:20.709Z,633.00
2023-03-29T09:34:20.763Z,630.00
2023-03-29T09:35:20.725Z,625.00
2023-03-29T09:36:20.796Z,624.00
2023-03-29T09:37:20.766Z,622.00
2023-03-29T09:38:20.755Z,621.00
2023-03-29T09:39:20.801Z,618.00
2023-03-29T09:40:20.814Z,616.00
2023-03-29T09:41:20.818Z,615.00
2023-03-29T09:42:20.824Z,613.00
2023-03-29T09:43:20.862Z,682.00
2023-03-29T09:44:30.738Z,628.00
2023-03-29T09:45:21.911Z,734.00
2023-03-29T09:46:21.028Z,853.00
2023-03-29T09:47:20.908Z,1088.00
2023-03-29T09:48:20.896Z,915.00
2023-03-29T09:49:20.912Z,1027.00
2023-03-29T09:50:31.032Z,960.00
2023-03-29T09:51:21.872Z,959.00
2023-03-29T09:52:20.873Z,1124.00
2023-03-29T09:53:20.911Z,1141.00
2023-03-29T09:54:20.879Z,1067.00
2023-03-29T09:55:20.864Z,1079.00
2023-03-29T09:56:20.834Z,1087.00
2023-03-29T09:57:20.887Z,1112.00
2023-03-29T09:58:20.831Z,1137.00
2023-03-29T09:59:20.908Z,1160.00
2023-03-29T10:00:20.812Z,1174.00
2023-03-29T10:01:20.885Z,1263.00
2023-03-29T10:02:21.940Z,1319.00
2023-03-29T10:03:21.829Z,1444.00
2023-03-29T10:04:20.913Z,1334.00
2023-03-29T10:05:20.797Z,1395.00
2023-03-29T10:06:20.778Z,1358.00
2023-03-29T10:07:20.834Z,1363.00
2023-03-29T10:08:20.843Z,1402.00
2023-03-29T10:09:20.851Z,1393.00
2023-03-29T10:10:20.745Z,1396.00
2023-03-29T10:11:20.761Z,1406.00
2023-03-29T10:12:20.802Z,1615.00
2023-03-29T10:13:21.799Z,1613.00
2023-03-29T10:14:20.729Z,1501.00
2023-03-29T10:15:29.054Z,1503.00
2023-03-29T10:16:21.770Z,1536.00
2023-03-29T10:17:20.730Z,1568.00
2023-03-29T10:18:20.776Z,1549.00
2023-03-29T10:19:20.718Z,1682.00
2023-03-29T10:20:20.702Z,1609.00
2023-03-29T10:21:20.756Z,1573.00
2023-03-29T10:22:20.644Z,1565.00
2023-03-29T10:23:20.659Z,1573.00
2023-03-29T10:24:20.651Z,1589.00
2023-03-29T10:25:20.631Z,1656.00
2023-03-29T10:26:20.723Z,1689.00
2023-03-29T10:27:20.926Z,1757.00
2023-03-29T10:28:20.944Z,1775.00
2023-03-29T10:29:21.074Z,1910.00
2023-03-29T10:30:21.124Z,1840.00
2023-03-29T10:31:21.337Z,1783.00
2023-03-29T10:32:21.139Z,1780.00
2023-03-29T10:33:21.153Z,1893.00
2023-03-29T10:34:21.184Z,1861.00
2023-03-29T10:35:21.169Z,1739.00
2023-03-29T10:36:21.285Z,1735.00
2023-03-29T10:37:21.299Z,1713.00
2023-03-29T10:38:21.244Z,1595.00
2023-03-29T10:39:21.236Z,1532.00
2023-03-29T10:40:21.211Z,1556.00
2023-03-29T10:41:21.229Z,1539.00
2023-03-29T10:42:21.246Z,1542.00
2023-03-29T10:43:21.245Z,1531.00
2023-03-29T10:44:21.245Z,1527.00
2023-03-29T10:45:21.224Z,1515.00
2023-03-29T10:46:21.299Z,1490.00
2023-03-29T10:47:21.265Z,1472.00
2023-03-29T10:48:21.307Z,1465.00
2023-03-29T10:49:21.343Z,1453.00
2023-03-29T10:50:21.394Z,1437.00
2023-03-29T10:51:21.815Z,1426.00
2023-03-29T10:52:21.482Z,1422.00
2023-03-29T10:53:21.519Z,1413.00
2023-03-29T10:54:21.548Z,1402.00
2023-03-29T10:55:21.595Z,1390.00
2023-03-29T10:56:21.655Z,1380.00
2023-03-29T10:57:22.937Z,1374.00
2023-03-29T10:58:21.774Z,1366.00
2023-03-29T10:59:21.828Z,1364.00
2023-03-29T11:00:21.922Z,1360.00
2023-03-29T11:01:22.014Z,1356.00
2023-03-29T11:02:22.003Z,1354.00
2023-03-29T11:03:22.095Z,1351.00
2023-03-29T11:04:22.103Z,1345.00
2023-03-29T11:05:22.147Z,1337.00
2023-03-29T11:06:22.267Z,1331.00
2023-03-29T11:07:22.274Z,1322.00
2023-03-29T11:08:22.295Z,1320.00
2023-03-29T11:09:22.387Z,1322.00
2023-03-29T11:10:22.406Z,1321.00
2023-03-29T11:11:22.491Z,1316.00
2023-03-29T11:12:22.505Z,1306.00
2023-03-29T11:13:22.503Z,1302.00
2023-03-29T11:14:22.533Z,1298.00
2023-03-29T11:15:22.556Z,1291.00
2023-03-29T11:16:22.735Z,1282.00
2023-03-29T11:17:22.659Z,1273.00
2023-03-29T11:18:22.635Z,1265.00
2023-03-29T11:19:22.716Z,1262.00
2023-03-29T11:20:22.721Z,1256.00
2023-03-29T11:21:22.799Z,1248.00
2023-03-29T11:22:22.780Z,1243.00
2023-03-29T11:23:22.792Z,1245.00
2023-03-29T11:24:22.827Z,1243.00
2023-03-29T11:25:22.861Z,1237.00
2023-03-29T11:26:23.320Z,1234.00
2023-03-29T11:27:22.863Z,1229.00
2023-03-29T11:28:22.876Z,1219.00
2023-03-29T11:29:22.893Z,1181.00
2023-03-29T11:30:22.858Z,1174.00
2023-03-29T11:31:23.350Z,1179.00
2023-03-29T11:32:22.933Z,1174.00
2023-03-29T11:33:22.866Z,1168.00
2023-03-29T11:34:22.929Z,1142.00
2023-03-29T11:35:22.929Z,1129.00
2023-03-29T11:36:23.336Z,1122.00
2023-03-29T11:37:22.938Z,1125.00
2023-03-29T11:38:22.948Z,1120.00
2023-03-29T11:39:22.953Z,1117.00
2023-03-29T11:40:23.822Z,1114.00
2023-03-29T11:41:22.964Z,1109.00
2023-03-29T11:42:22.983Z,1104.00
2023-03-29T11:43:22.995Z,1096.00
2023-03-29T11:44:22.985Z,1088.00
2023-03-29T11:45:22.989Z,1085.00
2023-03-29T11:46:22.991Z,1081.00
2023-03-29T11:47:23.081Z,1081.00
2023-03-29T11:48:23.012Z,1081.00
2023-03-29T11:49:23.026Z,1080.00
2023-03-29T11:50:23.025Z,1077.00
2023-03-29T11:51:23.025Z,1069.00
2023-03-29T11:52:23.037Z,1058.00
2023-03-29T11:53:23.053Z,1050.00
2023-03-29T11:54:23.050Z,1050.00
2023-03-29T11:55:23.032Z,1047.00
2023-03-29T11:56:23.075Z,1043.00
2023-03-29T11:57:23.103Z,1041.00
2023-03-29T11:58:23.095Z,1037.00
2023-03-29T11:59:23.053Z,1031.00
2023-03-29T12:00:23.062Z,1029.00
2023-03-29T12:01:23.048Z,1027.00
2023-03-29T12:02:23.137Z,1025.00
2023-03-29T12:03:23.179Z,1022.00
2023-03-29T12:04:23.162Z,1015.00
2023-03-29T12:05:23.117Z,1012.00
2023-03-29T12:06:23.134Z,1005.00
2023-03-29T12:07:23.142Z,1003.00
2023-03-29T12:08:23.114Z,998.00
2023-03-29T12:09:23.116Z,984.00
2023-03-29T12:10:23.101Z,951.00
2023-03-29T12:11:23.138Z,929.00
2023-03-29T12:12:23.182Z,916.00
2023-03-29T12:13:23.174Z,909.00
2023-03-29T12:14:24.077Z,901.00
2023-03-29T12:15:23.213Z,897.00
2023-03-29T12:16:23.322Z,894.00
2023-03-29T12:17:23.326Z,892.00
2023-03-29T12:18:23.308Z,881.00
2023-03-29T12:19:23.307Z,872.00
2023-03-29T12:20:23.363Z,860.00